sensor_id;sensor_type;location;lat;lon;timestamp;temperature;humidity
3186;DHT22;1604;53.700;10.252;2023-02-14T00:00:02;5.00;99.90
3186;DHT22;1604;53.700;10.252;2023-02-14T00:03:05;5.00;99.90
3186;DHT22;1604;53.700;10.252;2023-02-14T00:06:10;4.90;99.90
3186;DHT22;1604;53.700;10.252;2023-02-14T00:09:14;4.90;99.90
3186;DHT22;1604;53.700;10.252;2023-02-14T00:12:16;4.90;99.90
3186;DHT22;1604;53.700;10.252;2023-02-14T00:15:18;4.90;99.90
3186;DHT22;1604;53.700;10.252;2023-02-14T00:18:21;4.90;99.90
3186;DHT22;1604;53.700;10.252;2023-02-14T00:21:45;4.90;99.90
3186;DHT22;1604;53.700;10.252;2023-02-14T00:24:48;4.90;99.90
3186;DHT22;1604;53.700;10.252;2023-02-14T00:27:50;4.90;99.90
3186;DHT22;1604;53.700;10.252;2023-02-14T00:30:55;4.90;99.90
3186;DHT22;1604;53.700;10.252;2023-02-14T00:33:57;4.90;99.90
3186;DHT22;1604;53.700;10.252;2023-02-14T00:37:01;4.90;99.90
3186;DHT22;1604;53.700;10.252;2023-02-14T00:40:04;4.80;99.90
3186;DHT22;1604;53.700;10.252;2023-02-14T00:43:06;4.80;99.90
3186;DHT22;1604;53.700;10.252;2023-02-14T00:46:08;4.80;99.90
3186;DHT22;1604;53.700;10.252;2023-02-14T00:49:10;4.80;99.90
3186;DHT22;1604;53.700;10.252;2023-02-14T00:52:14;4.80;99.90
3186;DHT22;1604;53.700;10.252;2023-02-14T00:55:16;4.80;99.90
3186;DHT22;1604;53.700;10.252;2023-02-14T00:58:18;4.80;99.90
3186;DHT22;1604;53.700;10.252;2023-02-14T01:01:20;4.80;99.90
3186;DHT22;1604;53.700;10.252;2023-02-14T01:04:22;4.80;99.90
3186;DHT22;1604;53.700;10.252;2023-02-14T01:07:25;4.80;99.90
3186;DHT22;1604;53.700;10.252;2023-02-14T01:10:27;4.80;99.90
3186;DHT22;1604;53.700;10.252;2023-02-14T01:13:29;4.80;99.90
3186;DHT22;1604;53.700;10.252;2023-02-14T01:16:31;4.80;99.90
3186;DHT22;1604;53.700;10.252;2023-02-14T01:19:32;4.80;99.90
3186;DHT22;1604;53.700;10.252;2023-02-14T01:22:37;4.70;99.90
3186;DHT22;1604;53.700;10.252;2023-02-14T01:25:39;4.70;99.90
3186;DHT22;1604;53.700;10.252;2023-02-14T01:28:42;4.70;99.90
3186;DHT22;1604;53.700;10.252;2023-02-14T01:31:44;4.70;99.90
3186;DHT22;1604;53.700;10.252;2023-02-14T01:34:47;4.70;99.90
3186;DHT22;1604;53.700;10.252;2023-02-14T01:37:51;4.70;99.90
3186;DHT22;1604;53.700;10.252;2023-02-14T01:40:52;4.70;99.90
3186;DHT22;1604;53.700;10.252;2023-02-14T01:43:57;4.70;99.90
3186;DHT22;1604;53.700;10.252;2023-02-14T01:47:02;4.70;99.90
3186;DHT22;1604;53.700;10.252;2023-02-14T01:50:08;4.70;99.90
3186;DHT22;1604;53.700;10.252;2023-02-14T01:53:14;4.70;99.90
3186;DHT22;1604;53.700;10.252;2023-02-14T01:56:19;4.70;99.90
3186;DHT22;1604;53.700;10.252;2023-02-14T01:59:25;4.70;99.90
3186;DHT22;1604;53.700;10.252;2023-02-14T02:02:28;4.70;99.90
3186;DHT22;1604;53.700;10.252;2023-02-14T02:05:30;4.60;99.90
3186;DHT22;1604;53.700;10.252;2023-02-14T02:08:39;4.60;99.90
3186;DHT22;1604;53.700;10.252;2023-02-14T02:11:42;4.60;99.90
3186;DHT22;1604;53.700;10.252;2023-02-14T02:14:45;4.60;99.90
3186;DHT22;1604;53.700;10.252;2023-02-14T02:17:54;4.60;99.90
3186;DHT22;1604;53.700;10.252;2023-02-14T02:21:19;4.60;99.90
3186;DHT22;1604;53.700;10.252;2023-02-14T02:24:35;4.60;99.90
3186;DHT22;1604;53.700;10.252;2023-02-14T02:28:05;4.60;99.90
3186;DHT22;1604;53.700;10.252;2023-02-14T02:31:24;4.50;99.90
3186;DHT22;1604;53.700;10.252;2023-02-14T02:38:07;4.50;99.90
3186;DHT22;1604;53.700;10.252;2023-02-14T02:41:17;4.50;99.90
3186;DHT22;1604;53.700;10.252;2023-02-14T02:44:31;4.50;99.90
3186;DHT22;1604;53.700;10.252;2023-02-14T02:47:40;4.50;99.90
3186;DHT22;1604;53.700;10.252;2023-02-14T02:50:47;4.50;99.90
3186;DHT22;1604;53.700;10.252;2023-02-14T02:54:13;4.50;99.90
3186;DHT22;1604;53.700;10.252;2023-02-14T02:57:22;4.50;99.90
3186;DHT22;1604;53.700;10.252;2023-02-14T03:00:26;4.50;99.90
3186;DHT22;1604;53.700;10.252;2023-02-14T03:03:30;4.50;99.90
3186;DHT22;1604;53.700;10.252;2023-02-14T03:06:51;4.50;99.90
3186;DHT22;1604;53.700;10.252;2023-02-14T03:09:58;4.50;99.90
3186;DHT22;1604;53.700;10.252;2023-02-14T03:16:32;4.50;99.90
3186;DHT22;1604;53.700;10.252;2023-02-14T03:19:44;4.50;99.90
3186;DHT22;1604;53.700;10.252;2023-02-14T03:23:13;4.50;99.90
3186;DHT22;1604;53.700;10.252;2023-02-14T03:26:19;4.40;99.90
3186;DHT22;1604;53.700;10.252;2023-02-14T03:29:25;4.40;99.90
3186;DHT22;1604;53.700;10.252;2023-02-14T03:32:36;4.40;99.90
3186;DHT22;1604;53.700;10.252;2023-02-14T03:35:44;4.40;99.90
3186;DHT22;1604;53.700;10.252;2023-02-14T03:38:52;4.40;99.90
3186;DHT22;1604;53.700;10.252;2023-02-14T03:42:01;4.40;99.90
3186;DHT22;1604;53.700;10.252;2023-02-14T03:45:08;4.40;99.90
3186;DHT22;1604;53.700;10.252;2023-02-14T03:48:13;4.40;99.90
3186;DHT22;1604;53.700;10.252;2023-02-14T03:51:17;4.40;99.90
3186;DHT22;1604;53.700;10.252;2023-02-14T03:54:21;4.40;99.90
3186;DHT22;1604;53.700;10.252;2023-02-14T03:57:29;4.30;99.90
3186;DHT22;1604;53.700;10.252;2023-02-14T04:00:35;4.30;99.90
3186;DHT22;1604;53.700;10.252;2023-02-14T04:03:39;4.30;99.90
3186;DHT22;1604;53.700;10.252;2023-02-14T04:06:42;4.30;99.90
3186;DHT22;1604;53.700;10.252;2023-02-14T04:09:45;4.30;99.90
3186;DHT22;1604;53.700;10.252;2023-02-14T04:12:49;4.30;99.90
3186;DHT22;1604;53.700;10.252;2023-02-14T04:15:51;4.30;99.90
3186;DHT22;1604;53.700;10.252;2023-02-14T04:18:53;4.30;99.90
3186;DHT22;1604;53.700;10.252;2023-02-14T04:22:12;4.30;99.90
3186;DHT22;1604;53.700;10.252;2023-02-14T04:25:14;4.20;99.90
3186;DHT22;1604;53.700;10.252;2023-02-14T04:28:17;4.20;99.90
3186;DHT22;1604;53.700;10.252;2023-02-14T04:31:20;4.20;99.90
3186;DHT22;1604;53.700;10.252;2023-02-14T04:34:25;4.20;99.90
3186;DHT22;1604;53.700;10.252;2023-02-14T04:37:27;4.20;99.90
3186;DHT22;1604;53.700;10.252;2023-02-14T04:40:29;4.20;99.90
3186;DHT22;1604;53.700;10.252;2023-02-14T04:43:32;4.20;99.90
3186;DHT22;1604;53.700;10.252;2023-02-14T04:46:34;4.20;99.90
3186;DHT22;1604;53.700;10.252;2023-02-14T04:49:39;4.20;99.90
3186;DHT22;1604;53.700;10.252;2023-02-14T04:52:41;4.10;99.90
3186;DHT22;1604;53.700;10.252;2023-02-14T04:55:43;4.20;99.90
3186;DHT22;1604;53.700;10.252;2023-02-14T04:58:46;4.10;99.90
3186;DHT22;1604;53.700;10.252;2023-02-14T05:01:48;4.10;99.90
3186;DHT22;1604;53.700;10.252;2023-02-14T05:04:50;4.10;99.90
3186;DHT22;1604;53.700;10.252;2023-02-14T05:07:52;4.10;99.90
3186;DHT22;1604;53.700;10.252;2023-02-14T05:10:58;4.10;99.90
3186;DHT22;1604;53.700;10.252;2023-02-14T05:14:01;4.10;99.90
3186;DHT22;1604;53.700;10.252;2023-02-14T05:17:03;4.10;99.90
3186;DHT22;1604;53.700;10.252;2023-02-14T05:20:06;4.10;99.90
3186;DHT22;1604;53.700;10.252;2023-02-14T05:23:08;4.10;99.90
3186;DHT22;1604;53.700;10.252;2023-02-14T05:26:13;4.10;99.90
3186;DHT22;1604;53.700;10.252;2023-02-14T05:29:16;4.10;99.90
3186;DHT22;1604;53.700;10.252;2023-02-14T05:32:18;4.10;99.90
3186;DHT22;1604;53.700;10.252;2023-02-14T05:35:20;4.00;99.90
3186;DHT22;1604;53.700;10.252;2023-02-14T05:38:22;4.10;99.90
3186;DHT22;1604;53.700;10.252;2023-02-14T05:41:24;4.00;99.90
3186;DHT22;1604;53.700;10.252;2023-02-14T05:44:29;4.00;99.90
3186;DHT22;1604;53.700;10.252;2023-02-14T05:47:31;4.00;99.90
3186;DHT22;1604;53.700;10.252;2023-02-14T05:50:33;4.00;99.90
3186;DHT22;1604;53.700;10.252;2023-02-14T05:53:36;4.00;99.90
3186;DHT22;1604;53.700;10.252;2023-02-14T05:56:37;4.00;99.90
3186;DHT22;1604;53.700;10.252;2023-02-14T05:59:41;4.00;99.90
3186;DHT22;1604;53.700;10.252;2023-02-14T06:02:43;4.00;99.90
3186;DHT22;1604;53.700;10.252;2023-02-14T06:05:44;4.00;99.90
3186;DHT22;1604;53.700;10.252;2023-02-14T06:08:46;4.00;99.90
3186;DHT22;1604;53.700;10.252;2023-02-14T06:11:51;4.00;99.90
3186;DHT22;1604;53.700;10.252;2023-02-14T06:14:55;4.00;99.90
3186;DHT22;1604;53.700;10.252;2023-02-14T06:17:57;4.00;99.90
3186;DHT22;1604;53.700;10.252;2023-02-14T06:20:58;4.00;99.90
3186;DHT22;1604;53.700;10.252;2023-02-14T06:24:00;4.00;99.90
3186;DHT22;1604;53.700;10.252;2023-02-14T06:27:02;4.00;99.90
3186;DHT22;1604;53.700;10.252;2023-02-14T06:30:07;4.00;99.90
3186;DHT22;1604;53.700;10.252;2023-02-14T06:33:10;4.00;99.90
3186;DHT22;1604;53.700;10.252;2023-02-14T06:36:12;4.00;99.90
3186;DHT22;1604;53.700;10.252;2023-02-14T06:39:13;4.00;99.90
3186;DHT22;1604;53.700;10.252;2023-02-14T06:42:15;4.00;99.90
3186;DHT22;1604;53.700;10.252;2023-02-14T06:45:19;4.00;99.90
3186;DHT22;1604;53.700;10.252;2023-02-14T06:48:20;4.00;99.90
3186;DHT22;1604;53.700;10.252;2023-02-14T06:51:22;4.00;99.90
3186;DHT22;1604;53.700;10.252;2023-02-14T06:54:24;4.00;99.90
3186;DHT22;1604;53.700;10.252;2023-02-14T06:57:26;4.00;99.90
3186;DHT22;1604;53.700;10.252;2023-02-14T07:00:30;4.00;99.90
3186;DHT22;1604;53.700;10.252;2023-02-14T07:03:32;4.00;99.90
3186;DHT22;1604;53.700;10.252;2023-02-14T07:06:34;4.00;99.90
3186;DHT22;1604;53.700;10.252;2023-02-14T07:09:36;4.00;99.90
3186;DHT22;1604;53.700;10.252;2023-02-14T07:12:39;4.00;99.90
3186;DHT22;1604;53.700;10.252;2023-02-14T07:15:42;4.00;99.90
3186;DHT22;1604;53.700;10.252;2023-02-14T07:18:44;4.00;99.90
3186;DHT22;1604;53.700;10.252;2023-02-14T07:21:46;4.00;99.90
3186;DHT22;1604;53.700;10.252;2023-02-14T07:24:48;4.00;99.90
3186;DHT22;1604;53.700;10.252;2023-02-14T07:27:49;4.10;99.90
3186;DHT22;1604;53.700;10.252;2023-02-14T07:30:53;4.10;99.90
3186;DHT22;1604;53.700;10.252;2023-02-14T07:33:56;4.10;99.90
3186;DHT22;1604;53.700;10.252;2023-02-14T07:37:00;4.10;99.90
3186;DHT22;1604;53.700;10.252;2023-02-14T07:40:03;4.10;99.90
3186;DHT22;1604;53.700;10.252;2023-02-14T07:43:05;4.10;99.90
3186;DHT22;1604;53.700;10.252;2023-02-14T07:46:09;4.20;99.90
3186;DHT22;1604;53.700;10.252;2023-02-14T07:49:11;4.20;99.90
3186;DHT22;1604;53.700;10.252;2023-02-14T07:52:13;4.20;99.90
3186;DHT22;1604;53.700;10.252;2023-02-14T07:55:14;4.20;99.90
3186;DHT22;1604;53.700;10.252;2023-02-14T07:58:17;4.30;99.90
3186;DHT22;1604;53.700;10.252;2023-02-14T08:01:20;4.30;99.90
3186;DHT22;1604;53.700;10.252;2023-02-14T08:04:22;4.30;99.90
3186;DHT22;1604;53.700;10.252;2023-02-14T08:07:25;4.40;99.90
3186;DHT22;1604;53.700;10.252;2023-02-14T08:10:29;4.40;99.90
3186;DHT22;1604;53.700;10.252;2023-02-14T08:13:31;4.40;99.90
3186;DHT22;1604;53.700;10.252;2023-02-14T08:16:34;4.50;99.90
3186;DHT22;1604;53.700;10.252;2023-02-14T08:19:40;4.50;99.90
3186;DHT22;1604;53.700;10.252;2023-02-14T08:22:41;4.60;99.90
3186;DHT22;1604;53.700;10.252;2023-02-14T08:25:45;4.70;99.90
3186;DHT22;1604;53.700;10.252;2023-02-14T08:28:48;4.70;99.90
3186;DHT22;1604;53.700;10.252;2023-02-14T08:31:51;4.80;99.90
3186;DHT22;1604;53.700;10.252;2023-02-14T08:34:53;4.80;99.90
3186;DHT22;1604;53.700;10.252;2023-02-14T08:37:57;4.90;99.90
3186;DHT22;1604;53.700;10.252;2023-02-14T08:41:00;5.00;99.90
3186;DHT22;1604;53.700;10.252;2023-02-14T08:44:02;5.10;99.90
3186;DHT22;1604;53.700;10.252;2023-02-14T08:47:07;5.10;99.90
3186;DHT22;1604;53.700;10.252;2023-02-14T08:50:12;5.20;99.90
3186;DHT22;1604;53.700;10.252;2023-02-14T08:53:16;5.30;99.90
3186;DHT22;1604;53.700;10.252;2023-02-14T08:56:18;5.30;99.90
3186;DHT22;1604;53.700;10.252;2023-02-14T08:59:22;5.40;99.90
3186;DHT22;1604;53.700;10.252;2023-02-14T09:02:25;5.50;99.90
3186;DHT22;1604;53.700;10.252;2023-02-14T09:05:30;5.50;99.90
3186;DHT22;1604;53.700;10.252;2023-02-14T09:08:33;5.60;99.90
3186;DHT22;1604;53.700;10.252;2023-02-14T09:11:39;5.70;99.90
3186;DHT22;1604;53.700;10.252;2023-02-14T09:14:42;5.80;99.90
3186;DHT22;1604;53.700;10.252;2023-02-14T09:17:46;5.80;99.90
3186;DHT22;1604;53.700;10.252;2023-02-14T09:20:48;5.90;99.90
3186;DHT22;1604;53.700;10.252;2023-02-14T09:23:51;6.10;99.90
3186;DHT22;1604;53.700;10.252;2023-02-14T09:26:56;6.10;99.90
3186;DHT22;1604;53.700;10.252;2023-02-14T09:29:58;6.20;99.90
3186;DHT22;1604;53.700;10.252;2023-02-14T09:33:01;6.30;99.90
3186;DHT22;1604;53.700;10.252;2023-02-14T09:36:05;6.40;99.90
3186;DHT22;1604;53.700;10.252;2023-02-14T09:39:25;6.40;99.90
3186;DHT22;1604;53.700;10.252;2023-02-14T09:42:41;6.50;99.90
3186;DHT22;1604;53.700;10.252;2023-02-14T09:45:52;6.50;99.90
3186;DHT22;1604;53.700;10.252;2023-02-14T09:48:57;6.60;99.90
3186;DHT22;1604;53.700;10.252;2023-02-14T09:52:01;6.60;99.90
3186;DHT22;1604;53.700;10.252;2023-02-14T09:55:12;6.60;99.90
3186;DHT22;1604;53.700;10.252;2023-02-14T09:58:19;6.60;99.90
3186;DHT22;1604;53.700;10.252;2023-02-14T10:01:26;6.70;99.90
3186;DHT22;1604;53.700;10.252;2023-02-14T10:04:32;6.70;99.90
3186;DHT22;1604;53.700;10.252;2023-02-14T10:07:42;6.70;99.90
3186;DHT22;1604;53.700;10.252;2023-02-14T10:10:59;6.70;99.90
3186;DHT22;1604;53.700;10.252;2023-02-14T10:14:07;6.70;99.90
3186;DHT22;1604;53.700;10.252;2023-02-14T10:17:14;6.70;99.90
3186;DHT22;1604;53.700;10.252;2023-02-14T10:20:23;6.70;99.90
3186;DHT22;1604;53.700;10.252;2023-02-14T10:23:31;6.80;99.90
3186;DHT22;1604;53.700;10.252;2023-02-14T10:26:35;6.90;99.90
3186;DHT22;1604;53.700;10.252;2023-02-14T10:29:40;6.90;99.90
3186;DHT22;1604;53.700;10.252;2023-02-14T10:32:46;6.90;99.90
3186;DHT22;1604;53.700;10.252;2023-02-14T10:35:52;7.00;99.90
3186;DHT22;1604;53.700;10.252;2023-02-14T10:39:05;7.00;99.90
3186;DHT22;1604;53.700;10.252;2023-02-14T10:42:18;7.00;99.90
3186;DHT22;1604;53.700;10.252;2023-02-14T10:45:26;7.00;99.90
3186;DHT22;1604;53.700;10.252;2023-02-14T10:48:48;7.10;99.90
3186;DHT22;1604;53.700;10.252;2023-02-14T10:51:57;7.20;99.90
3186;DHT22;1604;53.700;10.252;2023-02-14T10:55:11;7.20;99.90
3186;DHT22;1604;53.700;10.252;2023-02-14T10:58:16;7.30;99.90
3186;DHT22;1604;53.700;10.252;2023-02-14T11:01:21;7.40;99.90
3186;DHT22;1604;53.700;10.252;2023-02-14T11:04:27;7.40;99.90
3186;DHT22;1604;53.700;10.252;2023-02-14T11:07:33;7.50;99.90
3186;DHT22;1604;53.700;10.252;2023-02-14T11:10:41;7.60;99.90
3186;DHT22;1604;53.700;10.252;2023-02-14T11:13:43;7.60;99.90
3186;DHT22;1604;53.700;10.252;2023-02-14T11:16:46;7.70;99.90
3186;DHT22;1604;53.700;10.252;2023-02-14T11:19:56;7.70;99.90
3186;DHT22;1604;53.700;10.252;2023-02-14T11:22:59;7.90;99.90
3186;DHT22;1604;53.700;10.252;2023-02-14T11:26:03;8.00;99.90
3186;DHT22;1604;53.700;10.252;2023-02-14T11:29:11;8.10;99.90
3186;DHT22;1604;53.700;10.252;2023-02-14T11:32:21;8.20;99.90
3186;DHT22;1604;53.700;10.252;2023-02-14T11:35:27;8.30;99.90
3186;DHT22;1604;53.700;10.252;2023-02-14T11:38:36;8.30;99.90
3186;DHT22;1604;53.700;10.252;2023-02-14T11:41:47;8.30;99.90
3186;DHT22;1604;53.700;10.252;2023-02-14T11:44:54;8.40;99.90
3186;DHT22;1604;53.700;10.252;2023-02-14T11:48:14;8.50;99.90
3186;DHT22;1604;53.700;10.252;2023-02-14T11:51:25;8.60;99.90
3186;DHT22;1604;53.700;10.252;2023-02-14T11:54:40;8.70;99.90
3186;DHT22;1604;53.700;10.252;2023-02-14T11:57:47;8.90;99.90
3186;DHT22;1604;53.700;10.252;2023-02-14T12:00:51;9.20;99.90
3186;DHT22;1604;53.700;10.252;2023-02-14T12:03:57;9.40;99.90
3186;DHT22;1604;53.700;10.252;2023-02-14T12:07:22;9.50;99.90
3186;DHT22;1604;53.700;10.252;2023-02-14T12:10:29;9.70;99.70
3186;DHT22;1604;53.700;10.252;2023-02-14T12:13:32;9.90;99.30
3186;DHT22;1604;53.700;10.252;2023-02-14T12:16:39;10.00;99.20
3186;DHT22;1604;53.700;10.252;2023-02-14T12:19:50;10.20;98.70
3186;DHT22;1604;53.700;10.252;2023-02-14T12:23:00;10.40;98.30
3186;DHT22;1604;53.700;10.252;2023-02-14T12:26:11;10.50;98.20
3186;DHT22;1604;53.700;10.252;2023-02-14T12:29:21;10.70;97.40
3186;DHT22;1604;53.700;10.252;2023-02-14T12:32:27;10.70;97.30
3186;DHT22;1604;53.700;10.252;2023-02-14T12:35:38;10.90;96.80
3186;DHT22;1604;53.700;10.252;2023-02-14T12:38:50;11.00;97.00
3186;DHT22;1604;53.700;10.252;2023-02-14T12:42:04;11.20;96.30
3186;DHT22;1604;53.700;10.252;2023-02-14T12:45:11;11.30;95.60
3186;DHT22;1604;53.700;10.252;2023-02-14T12:48:27;11.40;95.40
3186;DHT22;1604;53.700;10.252;2023-02-14T12:51:37;11.50;95.20
3186;DHT22;1604;53.700;10.252;2023-02-14T12:54:52;11.60;94.40
3186;DHT22;1604;53.700;10.252;2023-02-14T12:58:01;11.60;94.20
3186;DHT22;1604;53.700;10.252;2023-02-14T13:01:39;11.60;94.40
3186;DHT22;1604;53.700;10.252;2023-02-14T13:04:56;11.70;94.50
3186;DHT22;1604;53.700;10.252;2023-02-14T13:08:17;11.80;93.80
3186;DHT22;1604;53.700;10.252;2023-02-14T13:11:34;11.80;93.70
3186;DHT22;1604;53.700;10.252;2023-02-14T13:14:55;11.80;93.70
3186;DHT22;1604;53.700;10.252;2023-02-14T13:18:04;11.90;93.90
3186;DHT22;1604;53.700;10.252;2023-02-14T13:21:12;12.00;93.00
3186;DHT22;1604;53.700;10.252;2023-02-14T13:24:21;12.00;93.20
3186;DHT22;1604;53.700;10.252;2023-02-14T13:27:27;12.00;93.10
3186;DHT22;1604;53.700;10.252;2023-02-14T13:30:34;12.10;92.70
3186;DHT22;1604;53.700;10.252;2023-02-14T13:33:42;12.10;92.60
3186;DHT22;1604;53.700;10.252;2023-02-14T13:36:44;12.00;92.40
3186;DHT22;1604;53.700;10.252;2023-02-14T13:39:53;12.00;92.80
3186;DHT22;1604;53.700;10.252;2023-02-14T13:42:57;11.90;92.40
3186;DHT22;1604;53.700;10.252;2023-02-14T13:46:00;11.90;93.10
3186;DHT22;1604;53.700;10.252;2023-02-14T13:49:24;11.90;92.90
3186;DHT22;1604;53.700;10.252;2023-02-14T13:52:41;11.80;93.30
3186;DHT22;1604;53.700;10.252;2023-02-14T13:55:44;11.70;93.30
3186;DHT22;1604;53.700;10.252;2023-02-14T13:58:49;11.70;93.30
3186;DHT22;1604;53.700;10.252;2023-02-14T14:01:53;11.70;93.80
3186;DHT22;1604;53.700;10.252;2023-02-14T14:04:55;11.70;93.70
3186;DHT22;1604;53.700;10.252;2023-02-14T14:08:16;11.70;93.70
3186;DHT22;1604;53.700;10.252;2023-02-14T14:11:54;11.70;94.00
3186;DHT22;1604;53.700;10.252;2023-02-14T14:15:10;11.60;94.50
3186;DHT22;1604;53.700;10.252;2023-02-14T14:18:39;11.70;94.40
3186;DHT22;1604;53.700;10.252;2023-02-14T14:21:43;11.70;94.20
3186;DHT22;1604;53.700;10.252;2023-02-14T14:25:01;11.60;94.30
3186;DHT22;1604;53.700;10.252;2023-02-14T14:28:09;11.60;94.50
3186;DHT22;1604;53.700;10.252;2023-02-14T14:31:12;11.60;94.80
3186;DHT22;1604;53.700;10.252;2023-02-14T14:34:19;11.60;94.20
3186;DHT22;1604;53.700;10.252;2023-02-14T14:37:23;11.50;94.40
3186;DHT22;1604;53.700;10.252;2023-02-14T14:40:27;11.40;94.80
3186;DHT22;1604;53.700;10.252;2023-02-14T14:43:33;11.40;94.90
3186;DHT22;1604;53.700;10.252;2023-02-14T14:46:36;11.30;95.20
3186;DHT22;1604;53.700;10.252;2023-02-14T14:49:39;11.20;95.80
3186;DHT22;1604;53.700;10.252;2023-02-14T14:52:45;11.20;96.10
3186;DHT22;1604;53.700;10.252;2023-02-14T14:55:47;11.20;96.20
3186;DHT22;1604;53.700;10.252;2023-02-14T14:58:52;11.10;96.20
3186;DHT22;1604;53.700;10.252;2023-02-14T15:01:55;11.00;96.40
3186;DHT22;1604;53.700;10.252;2023-02-14T15:05:12;11.00;96.70
3186;DHT22;1604;53.700;10.252;2023-02-14T15:08:16;10.90;97.00
3186;DHT22;1604;53.700;10.252;2023-02-14T15:11:21;10.90;97.00
3186;DHT22;1604;53.700;10.252;2023-02-14T15:14:44;10.80;96.80
3186;DHT22;1604;53.700;10.252;2023-02-14T15:17:49;10.80;97.10
3186;DHT22;1604;53.700;10.252;2023-02-14T15:20:53;10.70;97.30
3186;DHT22;1604;53.700;10.252;2023-02-14T15:23:55;10.50;97.70
3186;DHT22;1604;53.700;10.252;2023-02-14T15:26:58;10.40;97.80
3186;DHT22;1604;53.700;10.252;2023-02-14T15:30:02;10.40;98.00
3186;DHT22;1604;53.700;10.252;2023-02-14T15:33:05;10.20;98.10
3186;DHT22;1604;53.700;10.252;2023-02-14T15:36:15;10.10;98.40
3186;DHT22;1604;53.700;10.252;2023-02-14T15:39:19;10.10;98.70
3186;DHT22;1604;53.700;10.252;2023-02-14T15:42:24;9.90;98.80
3186;DHT22;1604;53.700;10.252;2023-02-14T15:45:29;9.90;99.00
3186;DHT22;1604;53.700;10.252;2023-02-14T15:48:33;9.80;99.30
3186;DHT22;1604;53.700;10.252;2023-02-14T15:51:37;9.70;99.50
3186;DHT22;1604;53.700;10.252;2023-02-14T15:54:43;9.60;99.80
3186;DHT22;1604;53.700;10.252;2023-02-14T15:57:52;9.50;99.90
3186;DHT22;1604;53.700;10.252;2023-02-14T16:00:55;9.40;99.90
3186;DHT22;1604;53.700;10.252;2023-02-14T16:03:59;9.40;99.90
3186;DHT22;1604;53.700;10.252;2023-02-14T16:07:09;9.30;99.90
3186;DHT22;1604;53.700;10.252;2023-02-14T16:10:22;9.20;99.90
3186;DHT22;1604;53.700;10.252;2023-02-14T16:13:29;9.10;99.90
3186;DHT22;1604;53.700;10.252;2023-02-14T16:16:55;9.00;99.90
3186;DHT22;1604;53.700;10.252;2023-02-14T16:19:58;9.00;99.90
3186;DHT22;1604;53.700;10.252;2023-02-14T16:23:21;8.90;99.90
3186;DHT22;1604;53.700;10.252;2023-02-14T16:26:23;8.80;99.90
3186;DHT22;1604;53.700;10.252;2023-02-14T16:29:25;8.70;99.90
3186;DHT22;1604;53.700;10.252;2023-02-14T16:32:27;8.60;99.90
3186;DHT22;1604;53.700;10.252;2023-02-14T16:35:30;8.50;99.90
3186;DHT22;1604;53.700;10.252;2023-02-14T16:38:39;8.40;99.90
3186;DHT22;1604;53.700;10.252;2023-02-14T16:41:43;8.30;99.90
3186;DHT22;1604;53.700;10.252;2023-02-14T16:44:46;8.30;99.90
3186;DHT22;1604;53.700;10.252;2023-02-14T16:47:48;8.20;99.90
3186;DHT22;1604;53.700;10.252;2023-02-14T16:50:51;8.10;99.90
3186;DHT22;1604;53.700;10.252;2023-02-14T16:53:55;8.00;99.90
3186;DHT22;1604;53.700;10.252;2023-02-14T16:56:59;7.90;99.90
3186;DHT22;1604;53.700;10.252;2023-02-14T17:00:04;7.80;99.90
3186;DHT22;1604;53.700;10.252;2023-02-14T17:03:06;7.70;99.90
3186;DHT22;1604;53.700;10.252;2023-02-14T17:06:14;7.70;99.90
3186;DHT22;1604;53.700;10.252;2023-02-14T17:09:22;7.60;99.90
3186;DHT22;1604;53.700;10.252;2023-02-14T17:12:28;7.50;99.90
3186;DHT22;1604;53.700;10.252;2023-02-14T17:15:31;7.40;99.90
3186;DHT22;1604;53.700;10.252;2023-02-14T17:18:34;7.40;99.90
3186;DHT22;1604;53.700;10.252;2023-02-14T17:21:37;7.30;99.90
3186;DHT22;1604;53.700;10.252;2023-02-14T17:24:40;7.20;99.90
3186;DHT22;1604;53.700;10.252;2023-02-14T17:27:42;7.10;99.90
3186;DHT22;1604;53.700;10.252;2023-02-14T17:30:46;7.00;99.90
3186;DHT22;1604;53.700;10.252;2023-02-14T17:33:48;7.00;99.90
3186;DHT22;1604;53.700;10.252;2023-02-14T17:36:50;6.90;99.90
3186;DHT22;1604;53.700;10.252;2023-02-14T17:39:53;6.80;99.90
3186;DHT22;1604;53.700;10.252;2023-02-14T17:42:55;6.80;99.90
3186;DHT22;1604;53.700;10.252;2023-02-14T17:45:57;6.70;99.90
3186;DHT22;1604;53.700;10.252;2023-02-14T17:48:59;6.60;99.90
3186;DHT22;1604;53.700;10.252;2023-02-14T17:52:02;6.60;99.90
3186;DHT22;1604;53.700;10.252;2023-02-14T17:55:06;6.50;99.90
3186;DHT22;1604;53.700;10.252;2023-02-14T17:58:08;6.50;99.90
3186;DHT22;1604;53.700;10.252;2023-02-14T18:01:11;6.40;99.90
3186;DHT22;1604;53.700;10.252;2023-02-14T18:04:13;6.40;99.90
3186;DHT22;1604;53.700;10.252;2023-02-14T18:07:15;6.30;99.90
3186;DHT22;1604;53.700;10.252;2023-02-14T18:10:18;6.20;99.90
3186;DHT22;1604;53.700;10.252;2023-02-14T18:13:20;6.10;99.90
3186;DHT22;1604;53.700;10.252;2023-02-14T18:16:23;6.10;99.90
3186;DHT22;1604;53.700;10.252;2023-02-14T18:19:25;6.00;99.90
3186;DHT22;1604;53.700;10.252;2023-02-14T18:22:26;6.00;99.90
3186;DHT22;1604;53.700;10.252;2023-02-14T18:25:30;5.90;99.90
3186;DHT22;1604;53.700;10.252;2023-02-14T18:28:34;5.90;99.90
3186;DHT22;1604;53.700;10.252;2023-02-14T18:31:38;5.80;99.90
3186;DHT22;1604;53.700;10.252;2023-02-14T18:34:43;5.80;99.90
3186;DHT22;1604;53.700;10.252;2023-02-14T18:37:45;5.70;99.90
3186;DHT22;1604;53.700;10.252;2023-02-14T18:40:48;5.70;99.90
3186;DHT22;1604;53.700;10.252;2023-02-14T18:43:50;5.60;99.90
3186;DHT22;1604;53.700;10.252;2023-02-14T18:46:52;5.60;99.90
3186;DHT22;1604;53.700;10.252;2023-02-14T18:49:55;5.60;99.90
3186;DHT22;1604;53.700;10.252;2023-02-14T18:52:58;5.50;99.90
3186;DHT22;1604;53.700;10.252;2023-02-14T18:56:05;5.50;99.90
3186;DHT22;1604;53.700;10.252;2023-02-14T18:59:08;5.40;99.90
3186;DHT22;1604;53.700;10.252;2023-02-14T19:02:11;5.40;99.90
3186;DHT22;1604;53.700;10.252;2023-02-14T19:05:13;5.40;99.90
3186;DHT22;1604;53.700;10.252;2023-02-14T19:08:15;5.30;99.90
3186;DHT22;1604;53.700;10.252;2023-02-14T19:11:21;5.30;99.90
3186;DHT22;1604;53.700;10.252;2023-02-14T19:14:24;5.30;99.90
3186;DHT22;1604;53.700;10.252;2023-02-14T19:17:26;5.20;99.90
3186;DHT22;1604;53.700;10.252;2023-02-14T19:20:28;5.20;99.90
3186;DHT22;1604;53.700;10.252;2023-02-14T19:23:30;5.20;99.90
3186;DHT22;1604;53.700;10.252;2023-02-14T19:26:35;5.20;99.90
3186;DHT22;1604;53.700;10.252;2023-02-14T19:29:39;5.10;99.90
3186;DHT22;1604;53.700;10.252;2023-02-14T19:32:41;5.10;99.90
3186;DHT22;1604;53.700;10.252;2023-02-14T19:35:43;5.10;99.90
3186;DHT22;1604;53.700;10.252;2023-02-14T19:38:47;5.10;99.90
3186;DHT22;1604;53.700;10.252;2023-02-14T19:41:50;5.10;99.90
3186;DHT22;1604;53.700;10.252;2023-02-14T19:44:52;5.00;99.90
3186;DHT22;1604;53.700;10.252;2023-02-14T19:47:54;5.00;99.90
3186;DHT22;1604;53.700;10.252;2023-02-14T19:50:59;4.90;99.90
3186;DHT22;1604;53.700;10.252;2023-02-14T19:54:02;4.90;99.90
3186;DHT22;1604;53.700;10.252;2023-02-14T19:57:11;4.80;99.90
3186;DHT22;1604;53.700;10.252;2023-02-14T20:00:14;4.80;99.90
3186;DHT22;1604;53.700;10.252;2023-02-14T20:03:17;4.70;99.90
3186;DHT22;1604;53.700;10.252;2023-02-14T20:06:19;4.60;99.90
3186;DHT22;1604;53.700;10.252;2023-02-14T20:09:21;4.60;99.90
3186;DHT22;1604;53.700;10.252;2023-02-14T20:12:26;4.50;99.90
3186;DHT22;1604;53.700;10.252;2023-02-14T20:15:28;4.50;99.90